Terminal Aerodrome Forecast
Issued by NWS

Home | Current Version | Previous Version | Graphics & Text | Print | Product List | Glossary On
Versions: 1 2 3 4 5 6 7 8 9 10 11 12 13 14 15 16 17 18 19 20 21 22 23 24 25
000
FTUS43 KICT 232340
TAFSLN
TAF
KSLN 232340Z 2400/2424 14014G24KT P6SM -RA SCT005 OVC070
      TEMPO 2400/2403 6SM BR BKN005
     FM240300 12008KT 4SM BR OVC004
     FM241200 15008KT 3SM BR VCSH OVC004
     FM241600 16008KT 6SM BR OVC015
     FM241900 15012KT P6SM VCTS SCT020 BKN035CB=

USA.gov is the U.S. government's official web portal to all federal, state and local government web resources and services.